createdAt,value
2022-10-05T00:00:48.820Z,12.64
2022-10-05T00:01:52.869Z,12.61
2022-10-05T00:02:55.967Z,12.61
2022-10-05T00:04:15.718Z,12.63
2022-10-05T00:05:32.450Z,12.63
2022-10-05T00:06:34.929Z,12.54
2022-10-05T00:07:37.520Z,12.54
2022-10-05T00:08:40.001Z,12.52
2022-10-05T00:09:44.374Z,12.55
2022-10-05T00:10:47.021Z,12.51
2022-10-05T00:11:50.176Z,12.50
2022-10-05T00:12:52.451Z,12.45
2022-10-05T00:13:54.653Z,12.41
2022-10-05T00:15:01.206Z,12.44
2022-10-05T00:16:16.690Z,12.45
2022-10-05T00:17:27.837Z,12.37
2022-10-05T00:18:30.022Z,12.36
2022-10-05T00:19:38.289Z,12.33
2022-10-05T00:20:41.889Z,12.35
2022-10-05T00:21:44.121Z,12.39
2022-10-05T00:22:46.669Z,12.37
2022-10-05T00:23:49.360Z,12.39
2022-10-05T00:24:56.731Z,12.48
2022-10-05T00:26:11.195Z,12.47
2022-10-05T00:27:21.452Z,12.51
2022-10-05T00:28:30.412Z,12.68
2022-10-05T00:29:34.542Z,12.66
2022-10-05T00:30:37.161Z,12.62
2022-10-05T00:31:39.521Z,12.65
2022-10-05T00:32:42.446Z,12.69
2022-10-05T00:33:45.231Z,12.71
2022-10-05T00:34:47.681Z,12.72
2022-10-05T00:35:50.294Z,12.65
2022-10-05T00:36:52.524Z,12.69
2022-10-05T00:37:55.805Z,12.71
2022-10-05T00:39:01.979Z,12.66
2022-10-05T00:40:20.189Z,12.70
2022-10-05T00:41:50.723Z,12.73
2022-10-05T00:43:11.202Z,12.74
2022-10-05T00:44:45.943Z,12.71
2022-10-05T00:45:55.066Z,12.73
2022-10-05T00:47:34.823Z,12.81
2022-10-05T00:48:44.202Z,12.80
2022-10-05T00:50:03.918Z,12.81
2022-10-05T00:51:36.637Z,12.72
2022-10-05T00:52:47.322Z,12.71
2022-10-05T00:53:58.612Z,12.74
2022-10-05T00:55:10.172Z,12.68
2022-10-05T00:56:40.619Z,12.70
2022-10-05T00:58:16.145Z,12.69
2022-10-05T00:59:24.234Z,12.68
2022-10-05T01:00:27.918Z,12.66
2022-10-05T01:02:07.233Z,12.64
2022-10-05T01:03:22.253Z,12.72
2022-10-05T01:04:54.135Z,12.78
2022-10-05T01:06:12.652Z,12.67
2022-10-05T01:07:35.642Z,12.59
2022-10-05T01:08:54.172Z,12.52
2022-10-05T01:09:59.242Z,12.57
2022-10-05T01:11:20.520Z,12.45
2022-10-05T01:12:32.102Z,12.43
2022-10-05T01:13:34.286Z,12.46
2022-10-05T01:15:00.500Z,12.50
2022-10-05T01:16:05.544Z,12.50
2022-10-05T01:17:25.185Z,12.50
2022-10-05T01:18:44.879Z,12.49
2022-10-05T01:20:08.580Z,12.48
2022-10-05T01:21:19.369Z,12.53
2022-10-05T01:22:41.333Z,12.49
2022-10-05T01:23:52.661Z,12.43
2022-10-05T01:25:25.470Z,12.40
2022-10-05T01:26:42.906Z,12.33
2022-10-05T01:27:56.698Z,12.34
2022-10-05T01:29:24.446Z,12.40
2022-10-05T01:30:31.406Z,12.40
2022-10-05T01:32:00.278Z,12.38
2022-10-05T01:33:15.561Z,12.35
2022-10-05T01:34:40.946Z,12.34
2022-10-05T01:35:45.795Z,12.35
2022-10-05T01:37:00.145Z,12.29
2022-10-05T01:38:43.869Z,12.27
2022-10-05T01:39:59.203Z,12.19
2022-10-05T01:41:27.270Z,12.10
2022-10-05T01:42:46.176Z,11.98
2022-10-05T01:44:09.925Z,11.95
2022-10-05T01:45:38.852Z,11.85
2022-10-05T01:46:44.285Z,11.78
2022-10-05T01:47:51.660Z,11.79
2022-10-05T01:49:18.641Z,11.75
2022-10-05T01:50:41.676Z,11.70
2022-10-05T01:52:08.329Z,11.67
2022-10-05T01:53:37.699Z,11.70
2022-10-05T01:54:45.084Z,11.72
2022-10-05T01:56:08.547Z,11.64
2022-10-05T01:57:33.973Z,11.60
2022-10-05T01:58:52.786Z,11.55
2022-10-05T02:00:04.415Z,11.62
2022-10-05T02:01:48.191Z,11.61
2022-10-05T02:03:20.608Z,11.56
2022-10-05T02:04:56.906Z,11.60
2022-10-05T02:06:02.028Z,11.62
2022-10-05T02:07:14.400Z,11.57
2022-10-05T02:08:34.973Z,11.58
2022-10-05T02:09:46.335Z,11.57
2022-10-05T02:11:03.647Z,11.60
2022-10-05T02:12:14.690Z,11.64
2022-10-05T02:13:25.579Z,11.69
2022-10-05T02:14:36.885Z,11.67
2022-10-05T02:15:46.584Z,11.66
2022-10-05T02:16:51.407Z,11.63
2022-10-05T02:18:02.520Z,11.60
2022-10-05T02:19:18.477Z,11.60
2022-10-05T02:20:28.941Z,11.61
2022-10-05T02:21:34.369Z,11.59
2022-10-05T02:22:51.177Z,11.57
2022-10-05T02:24:00.026Z,11.47
2022-10-05T02:25:08.730Z,11.45
2022-10-05T02:26:12.711Z,11.41
2022-10-05T02:27:22.734Z,11.45
2022-10-05T02:28:32.237Z,11.47
2022-10-05T02:29:37.596Z,11.49
2022-10-05T02:30:44.964Z,11.46
2022-10-05T02:32:00.185Z,11.47
2022-10-05T02:33:08.440Z,11.40
2022-10-05T02:34:20.301Z,11.38
2022-10-05T02:35:23.276Z,11.35
2022-10-05T02:36:35.237Z,11.25
2022-10-05T02:37:59.983Z,11.24
2022-10-05T02:39:09.659Z,11.29
2022-10-05T02:40:21.475Z,11.28
2022-10-05T02:41:47.263Z,11.26
2022-10-05T02:43:21.045Z,11.18
2022-10-05T02:44:41.414Z,11.11
2022-10-05T02:45:49.441Z,11.02
2022-10-05T02:47:12.380Z,10.89
2022-10-05T02:48:52.523Z,10.88
2022-10-05T02:50:03.445Z,10.81
2022-10-05T02:51:28.173Z,10.70
2022-10-05T02:52:54.870Z,10.69
2022-10-05T02:54:12.413Z,10.69
2022-10-05T02:55:43.815Z,10.75
2022-10-05T02:57:00.588Z,10.75
2022-10-05T02:58:22.254Z,10.73
2022-10-05T02:59:28.068Z,10.69
2022-10-05T03:00:36.831Z,10.70
2022-10-05T03:02:11.299Z,10.77
2022-10-05T03:03:35.525Z,10.79
2022-10-05T03:05:02.880Z,10.76
2022-10-05T03:06:16.220Z,10.68
2022-10-05T03:07:27.728Z,10.69
2022-10-05T03:08:31.690Z,10.64
2022-10-05T03:10:00.770Z,10.61
2022-10-05T03:11:15.024Z,10.56
2022-10-05T03:12:29.337Z,10.60
2022-10-05T03:13:31.479Z,10.63
2022-10-05T03:14:49.318Z,10.64
2022-10-05T03:16:22.703Z,10.61
2022-10-05T03:17:34.792Z,10.54
2022-10-05T03:18:46.180Z,10.53
2022-10-05T03:20:00.724Z,10.54
2022-10-05T03:21:12.060Z,10.53
2022-10-05T03:22:40.898Z,10.56
2022-10-05T03:24:08.086Z,10.52
2022-10-05T03:25:32.604Z,10.46
2022-10-05T03:26:37.672Z,10.45
2022-10-05T03:27:52.643Z,10.47
2022-10-05T03:29:08.701Z,10.43
2022-10-05T03:30:18.159Z,10.40
2022-10-05T03:31:40.447Z,10.38
2022-10-05T03:32:54.770Z,10.35
2022-10-05T03:34:06.420Z,10.35
2022-10-05T03:35:18.060Z,10.37
2022-10-05T03:36:42.133Z,10.38
2022-10-05T03:38:22.690Z,10.41
2022-10-05T03:39:34.314Z,10.38
2022-10-05T03:41:07.572Z,10.38
2022-10-05T03:42:21.021Z,10.25
2022-10-05T03:43:42.113Z,10.27
2022-10-05T03:44:59.514Z,10.27
2022-10-05T03:46:20.596Z,10.26
2022-10-05T03:47:35.911Z,10.21
2022-10-05T03:49:12.984Z,10.21
2022-10-05T03:50:37.395Z,10.18
2022-10-05T03:52:02.427Z,10.17
2022-10-05T03:53:21.143Z,10.26
2022-10-05T03:54:44.277Z,10.26
2022-10-05T03:55:59.661Z,10.24
2022-10-05T03:57:09.660Z,10.26
2022-10-05T03:58:31.709Z,10.24
2022-10-05T03:59:57.577Z,10.22
2022-10-05T04:01:04.870Z,10.20
2022-10-05T04:02:21.059Z,10.19
2022-10-05T04:03:38.867Z,10.21
2022-10-05T04:05:05.977Z,10.21
2022-10-05T04:06:26.980Z,10.14
2022-10-05T04:07:51.579Z,10.05
2022-10-05T04:09:05.827Z,10.05
2022-10-05T04:10:22.182Z,10.07
2022-10-05T04:11:47.165Z,10.04
2022-10-05T04:12:58.474Z,10.06
2022-10-05T04:14:32.283Z,10.08
2022-10-05T04:15:42.526Z,10.12
2022-10-05T04:16:49.642Z,10.14
2022-10-05T04:17:58.227Z,10.09
2022-10-05T04:19:23.605Z,10.04
2022-10-05T04:20:31.766Z,10.03
2022-10-05T04:22:00.504Z,10.06
2022-10-05T04:23:15.427Z,10.03
2022-10-05T04:24:37.861Z,10.06
2022-10-05T04:25:51.604Z,10.02
2022-10-05T04:27:00.474Z,9.96
2022-10-05T04:28:10.288Z,9.89
2022-10-05T04:29:29.969Z,9.92
2022-10-05T04:30:38.755Z,9.95
2022-10-05T04:32:15.817Z,9.96
2022-10-05T04:33:19.004Z,10.03
2022-10-05T04:34:36.677Z,10.02
2022-10-05T04:35:50.894Z,10.02
2022-10-05T04:37:00.981Z,10.04
2022-10-05T04:38:21.286Z,10.03
2022-10-05T04:39:28.511Z,10.00
2022-10-05T04:40:30.968Z,10.05
2022-10-05T04:41:37.490Z,10.02
2022-10-05T04:42:47.780Z,10.03
2022-10-05T04:43:53.273Z,10.00
2022-10-05T04:45:41.252Z,10.09
2022-10-05T04:46:57.831Z,10.09
2022-10-05T04:48:16.746Z,10.08
2022-10-05T04:49:34.387Z,10.05
2022-10-05T04:50:55.498Z,10.06
2022-10-05T04:52:32.667Z,10.07
2022-10-05T04:53:51.186Z,10.14
2022-10-05T04:55:05.909Z,10.17
2022-10-05T04:56:29.994Z,10.14
2022-10-05T04:57:38.282Z,10.11
2022-10-05T04:58:55.892Z,10.14
2022-10-05T05:00:05.564Z,10.15
2022-10-05T05:01:12.213Z,10.17
2022-10-05T05:03:03.204Z,10.24
2022-10-05T05:04:20.281Z,10.24
2022-10-05T05:06:12.100Z,10.16
2022-10-05T05:07:28.846Z,10.23
2022-10-05T05:09:08.204Z,10.22
2022-10-05T05:10:51.604Z,10.21
2022-10-05T05:12:15.543Z,10.22
2022-10-05T05:13:44.795Z,10.14
2022-10-05T05:14:47.421Z,10.19
2022-10-05T05:16:04.637Z,10.16
2022-10-05T05:17:28.971Z,10.14
2022-10-05T05:18:31.293Z,10.11
2022-10-05T05:19:51.358Z,10.15
2022-10-05T05:21:09.268Z,10.13
2022-10-05T05:22:29.169Z,10.17
2022-10-05T05:23:51.676Z,10.16
2022-10-05T05:25:17.737Z,10.22
2022-10-05T05:26:55.610Z,10.19
2022-10-05T05:28:21.045Z,10.22
2022-10-05T05:29:32.603Z,10.22
2022-10-05T05:30:47.997Z,10.24
2022-10-05T05:32:00.982Z,10.28
2022-10-05T05:33:03.375Z,10.16
2022-10-05T05:34:14.384Z,10.26
2022-10-05T05:35:28.708Z,10.26
2022-10-05T05:36:43.469Z,10.39
2022-10-05T05:38:04.991Z,10.32
2022-10-05T05:39:29.611Z,10.32
2022-10-05T05:40:48.144Z,10.33
2022-10-05T05:42:30.889Z,10.34
2022-10-05T05:43:47.366Z,10.29
2022-10-05T05:44:56.413Z,10.26
2022-10-05T05:46:01.782Z,10.28
2022-10-05T05:47:14.416Z,10.28
2022-10-05T05:48:42.200Z,10.25
2022-10-05T05:49:59.280Z,10.26
2022-10-05T05:51:09.364Z,10.26
2022-10-05T05:52:20.178Z,10.29
2022-10-05T05:53:32.910Z,10.35
2022-10-05T05:54:41.049Z,10.33
2022-10-05T05:55:49.792Z,10.38
2022-10-05T05:56:58.742Z,10.38
2022-10-05T05:58:13.973Z,10.35
2022-10-05T05:59:47.002Z,10.36
2022-10-05T06:01:30.670Z,10.38
2022-10-05T06:02:48.959Z,10.40
2022-10-05T06:04:07.439Z,10.33
2022-10-05T06:05:29.088Z,10.31
2022-10-05T06:06:37.961Z,10.33
2022-10-05T06:07:40.493Z,10.42
2022-10-05T06:08:47.697Z,10.43
2022-10-05T06:10:26.351Z,10.48
2022-10-05T06:11:45.386Z,10.55
2022-10-05T06:12:52.608Z,10.53
2022-10-05T06:13:58.611Z,10.60
2022-10-05T06:15:12.176Z,10.62
2022-10-05T06:16:46.428Z,10.67
2022-10-05T06:17:55.257Z,10.73
2022-10-05T06:19:03.824Z,10.70
2022-10-05T06:20:16.820Z,10.82
2022-10-05T06:21:53.347Z,10.96
2022-10-05T06:23:00.611Z,11.03
2022-10-05T06:24:25.688Z,11.10
2022-10-05T06:25:45.171Z,11.07
2022-10-05T06:27:15.373Z,11.20
2022-10-05T06:28:18.684Z,11.25
2022-10-05T06:29:37.497Z,11.31
2022-10-05T06:30:58.112Z,11.37
2022-10-05T06:32:06.718Z,11.51
2022-10-05T06:33:51.991Z,11.55
2022-10-05T06:35:29.817Z,11.76
2022-10-05T06:36:43.348Z,11.87
2022-10-05T06:38:06.589Z,11.97
2022-10-05T06:39:12.038Z,12.08
2022-10-05T06:40:31.731Z,12.13
2022-10-05T06:41:54.919Z,12.28
2022-10-05T06:43:41.181Z,12.37
2022-10-05T06:45:20.500Z,12.43
2022-10-05T06:47:07.431Z,12.66
2022-10-05T06:49:13.981Z,12.77
2022-10-05T06:50:45.823Z,12.98
2022-10-05T06:52:30.232Z,13.19
2022-10-05T06:53:51.110Z,13.32
2022-10-05T06:55:36.411Z,13.56
2022-10-05T06:57:09.920Z,13.81
2022-10-05T06:58:31.177Z,13.91
2022-10-05T06:59:50.174Z,14.16
2022-10-05T07:01:02.035Z,14.14
2022-10-05T07:02:04.378Z,14.15
2022-10-05T07:03:15.381Z,14.17
2022-10-05T07:04:26.613Z,14.00
2022-10-05T07:05:28.618Z,14.00
2022-10-05T07:06:36.525Z,14.08
2022-10-05T07:07:45.154Z,14.13
2022-10-05T07:08:53.941Z,14.10
2022-10-05T07:10:08.793Z,14.13
2022-10-05T07:11:35.572Z,14.20
2022-10-05T07:13:09.738Z,14.27
2022-10-05T07:14:33.629Z,14.37
2022-10-05T07:15:42.776Z,14.61
2022-10-05T07:16:58.439Z,14.69
2022-10-05T07:18:25.580Z,15.00
2022-10-05T07:19:54.953Z,15.37
2022-10-05T07:21:02.427Z,15.63
2022-10-05T07:22:35.986Z,16.03
2022-10-05T07:24:02.706Z,16.21
2022-10-05T07:25:09.199Z,16.32
2022-10-05T07:26:41.112Z,16.63
2022-10-05T07:27:57.751Z,16.86
2022-10-05T07:29:31.045Z,17.07
2022-10-05T07:30:47.216Z,17.32
2022-10-05T07:32:21.372Z,17.57
2022-10-05T07:34:04.846Z,17.83
2022-10-05T07:35:34.696Z,18.03
2022-10-05T07:37:03.576Z,18.11
2022-10-05T07:38:21.115Z,18.06
2022-10-05T07:40:00.286Z,18.08
2022-10-05T07:41:32.448Z,17.92
2022-10-05T07:43:11.623Z,18.07
2022-10-05T07:44:24.786Z,18.29
2022-10-05T07:45:42.202Z,18.36
2022-10-05T07:46:58.584Z,18.42
2022-10-05T07:48:33.020Z,18.48
2022-10-05T07:49:47.113Z,18.48
2022-10-05T07:51:12.513Z,18.77
2022-10-05T07:52:20.020Z,18.82
2022-10-05T07:53:32.341Z,18.82
2022-10-05T07:54:43.620Z,18.89
2022-10-05T07:55:55.654Z,18.98
2022-10-05T07:57:12.779Z,19.03
2022-10-05T07:58:31.902Z,19.00
2022-10-05T07:59:46.689Z,19.02
2022-10-05T08:01:20.796Z,19.05
2022-10-05T08:02:33.578Z,19.01
2022-10-05T08:03:52.279Z,19.11
2022-10-05T08:05:13.662Z,19.14
2022-10-05T08:06:32.986Z,19.18
2022-10-05T08:07:36.674Z,19.07
2022-10-05T08:09:22.535Z,19.05
2022-10-05T08:10:48.492Z,19.21
2022-10-05T08:12:22.945Z,19.29
2022-10-05T08:13:43.343Z,19.48
2022-10-05T08:15:04.560Z,19.53
2022-10-05T08:16:14.554Z,19.66
2022-10-05T08:17:32.933Z,19.56
2022-10-05T08:18:53.688Z,19.59
2022-10-05T08:20:06.009Z,19.42
2022-10-05T08:21:12.090Z,19.45
2022-10-05T08:22:31.410Z,19.58
2022-10-05T08:23:44.849Z,19.78
2022-10-05T08:24:59.356Z,19.86
2022-10-05T08:26:13.263Z,19.81
2022-10-05T08:27:38.924Z,19.90
2022-10-05T08:28:59.889Z,19.80
2022-10-05T08:30:09.697Z,19.89
2022-10-05T08:31:23.562Z,19.94
2022-10-05T08:32:31.448Z,19.84
2022-10-05T08:33:52.755Z,19.93
2022-10-05T08:35:28.172Z,20.04
2022-10-05T08:36:53.021Z,20.02
2022-10-05T08:37:56.863Z,20.16
2022-10-05T08:39:04.124Z,20.29
2022-10-05T08:40:57.026Z,20.14
2022-10-05T08:42:44.428Z,20.07
2022-10-05T08:44:16.980Z,20.03
2022-10-05T08:45:46.863Z,20.14
2022-10-05T08:46:57.853Z,20.29
2022-10-05T08:48:33.038Z,20.42
2022-10-05T08:49:47.568Z,20.59
2022-10-05T08:51:37.317Z,20.62
2022-10-05T08:52:42.285Z,20.82
2022-10-05T08:54:22.047Z,20.87
2022-10-05T08:55:45.529Z,20.94
2022-10-05T08:57:09.218Z,20.91
2022-10-05T08:58:38.539Z,20.74
2022-10-05T08:59:56.020Z,20.77
2022-10-05T09:01:15.962Z,20.64
2022-10-05T09:02:36.309Z,20.59
2022-10-05T09:04:03.317Z,20.34
2022-10-05T09:05:25.707Z,20.15
2022-10-05T09:07:01.561Z,20.02
2022-10-05T09:08:35.860Z,19.95
2022-10-05T09:09:53.221Z,19.87
2022-10-05T09:10:58.388Z,19.78
2022-10-05T09:12:38.127Z,19.87
2022-10-05T09:14:03.707Z,19.88
2022-10-05T09:15:33.903Z,19.75
2022-10-05T09:16:51.393Z,19.64
2022-10-05T09:18:14.843Z,19.59
2022-10-05T09:19:25.971Z,19.52
2022-10-05T09:20:55.731Z,19.49
2022-10-05T09:22:39.457Z,19.57
2022-10-05T09:23:44.851Z,19.58
2022-10-05T09:25:22.549Z,19.62
2022-10-05T09:27:02.085Z,19.71
2022-10-05T09:28:20.340Z,19.80
2022-10-05T09:29:31.163Z,19.94
2022-10-05T09:30:55.005Z,20.12
2022-10-05T09:32:29.601Z,20.12
2022-10-05T09:34:10.310Z,20.09
2022-10-05T09:35:24.585Z,20.14
2022-10-05T09:36:48.270Z,20.02
2022-10-05T09:38:34.921Z,20.19
2022-10-05T09:40:15.832Z,20.18
2022-10-05T09:41:34.669Z,20.10
2022-10-05T09:42:54.970Z,20.13
2022-10-05T09:44:15.358Z,20.26
2022-10-05T09:45:36.233Z,20.14
2022-10-05T09:47:12.832Z,20.08
2022-10-05T09:48:48.961Z,20.02
2022-10-05T09:50:09.982Z,20.00
2022-10-05T09:51:36.821Z,20.04
2022-10-05T09:53:00.196Z,19.81
2022-10-05T09:54:22.651Z,19.89
2022-10-05T09:55:49.383Z,19.98
2022-10-05T09:57:15.164Z,20.27
2022-10-05T09:58:35.672Z,20.31
2022-10-05T09:59:44.044Z,20.57
2022-10-05T10:01:39.676Z,20.64
2022-10-05T10:03:19.562Z,20.58
2022-10-05T10:05:20.862Z,20.71
2022-10-05T10:06:51.391Z,20.72
2022-10-05T10:08:26.060Z,20.74
2022-10-05T10:09:40.164Z,20.83
2022-10-05T10:11:30.065Z,20.72
2022-10-05T10:13:03.445Z,20.89
2022-10-05T10:14:16.994Z,20.96
2022-10-05T10:15:23.970Z,21.02
2022-10-05T10:16:46.182Z,20.98
2022-10-05T10:18:07.676Z,20.99
2022-10-05T10:19:19.211Z,21.01
2022-10-05T10:20:42.666Z,20.99
2022-10-05T10:21:57.183Z,20.82
2022-10-05T10:23:22.858Z,20.72
2022-10-05T10:24:42.297Z,20.63
2022-10-05T10:26:19.371Z,20.55
2022-10-05T10:27:39.757Z,20.13
2022-10-05T10:29:00.330Z,20.21
2022-10-05T10:30:03.644Z,20.27
2022-10-05T10:31:42.506Z,20.25
2022-10-05T10:33:15.918Z,20.25
2022-10-05T10:34:45.488Z,20.34
2022-10-05T10:36:11.628Z,20.39
2022-10-05T10:37:25.762Z,20.46
2022-10-05T10:39:02.766Z,20.46
2022-10-05T10:40:08.179Z,20.54
2022-10-05T10:41:25.686Z,20.55
2022-10-05T10:42:28.777Z,20.55
2022-10-05T10:44:11.717Z,20.53
2022-10-05T10:45:45.596Z,20.44
2022-10-05T10:47:34.991Z,20.47
2022-10-05T10:48:49.543Z,20.57
2022-10-05T10:50:19.559Z,20.58
2022-10-05T10:51:30.679Z,20.62
2022-10-05T10:52:43.800Z,20.36
2022-10-05T10:54:07.101Z,20.47
2022-10-05T10:55:27.883Z,20.60
2022-10-05T10:56:51.033Z,20.82
2022-10-05T10:58:21.023Z,20.85
2022-10-05T10:59:44.663Z,20.86
2022-10-05T11:01:21.162Z,21.03
2022-10-05T11:02:51.342Z,21.21
2022-10-05T11:04:35.542Z,21.36
2022-10-05T11:06:17.181Z,21.39
2022-10-05T11:07:53.562Z,21.42
2022-10-05T11:09:14.600Z,21.47
2022-10-05T11:10:48.537Z,21.61
2022-10-05T11:12:13.747Z,21.77
2022-10-05T11:13:28.147Z,21.82
2022-10-05T11:14:57.375Z,21.94
2022-10-05T11:16:19.642Z,21.98
2022-10-05T11:17:59.631Z,22.11
2022-10-05T11:19:16.881Z,22.05
2022-10-05T11:20:56.684Z,22.20
2022-10-05T11:22:11.062Z,22.26
2022-10-05T11:23:39.115Z,22.10
2022-10-05T11:25:19.932Z,22.04
2022-10-05T11:26:40.872Z,22.02
2022-10-05T11:27:55.028Z,22.09
2022-10-05T11:29:22.215Z,22.10
2022-10-05T11:31:11.819Z,22.07
2022-10-05T11:32:51.661Z,22.12
2022-10-05T11:34:19.045Z,22.17
2022-10-05T11:35:42.820Z,21.90
2022-10-05T11:37:09.858Z,21.90
2022-10-05T11:38:14.756Z,21.96
2022-10-05T11:39:37.070Z,22.05
2022-10-05T11:40:57.946Z,21.92
2022-10-05T11:42:32.650Z,22.03
2022-10-05T11:43:43.894Z,22.03
2022-10-05T11:45:21.736Z,22.05
2022-10-05T11:46:49.184Z,22.02
2022-10-05T11:48:28.065Z,22.12
2022-10-05T11:50:11.985Z,21.96
2022-10-05T11:51:35.700Z,22.01
2022-10-05T11:52:48.291Z,22.09
2022-10-05T11:53:53.103Z,22.13
2022-10-05T11:55:24.604Z,22.26
2022-10-05T11:56:35.409Z,22.22
2022-10-05T11:57:57.942Z,22.14
2022-10-05T11:59:19.374Z,22.25
2022-10-05T12:00:25.149Z,22.24
2022-10-05T12:01:42.554Z,22.17
2022-10-05T12:02:47.890Z,22.17
2022-10-05T12:04:15.184Z,22.01
2022-10-05T12:05:38.478Z,22.04
2022-10-05T12:06:58.763Z,22.09
2022-10-05T12:08:39.186Z,22.14
2022-10-05T12:10:17.454Z,22.24
2022-10-05T12:11:32.031Z,22.25
2022-10-05T12:12:44.201Z,22.31
2022-10-05T12:14:16.522Z,22.27
2022-10-05T12:15:27.379Z,22.26
2022-10-05T12:16:41.926Z,22.34
2022-10-05T12:17:56.342Z,22.28
2022-10-05T12:19:06.334Z,22.29
2022-10-05T12:20:30.539Z,22.37
2022-10-05T12:21:40.055Z,22.34
2022-10-05T12:22:58.095Z,22.37
2022-10-05T12:24:40.198Z,22.37
2022-10-05T12:25:53.562Z,22.36
2022-10-05T12:27:02.765Z,22.36
2022-10-05T12:28:12.281Z,22.37
2022-10-05T12:29:32.184Z,22.28
2022-10-05T12:31:07.741Z,22.32
2022-10-05T12:32:51.457Z,22.41
2022-10-05T12:34:27.807Z,22.51
2022-10-05T12:35:49.176Z,22.65
2022-10-05T12:37:36.574Z,22.79
2022-10-05T12:38:56.582Z,22.96
2022-10-05T12:40:15.404Z,22.95
2022-10-05T12:41:29.573Z,22.81
2022-10-05T12:42:43.934Z,22.84
2022-10-05T12:43:46.197Z,22.82
2022-10-05T12:45:13.664Z,22.87
2022-10-05T12:46:38.337Z,22.88
2022-10-05T12:48:18.705Z,22.95
2022-10-05T12:49:20.884Z,22.89
2022-10-05T12:50:36.923Z,22.82
2022-10-05T12:52:00.877Z,22.82
2022-10-05T12:53:45.165Z,22.77
2022-10-05T12:54:55.570Z,22.60
2022-10-05T12:56:11.934Z,22.65
2022-10-05T12:57:26.914Z,22.73
2022-10-05T12:58:35.591Z,22.82
2022-10-05T12:59:52.712Z,22.82
2022-10-05T13:00:58.127Z,22.74
2022-10-05T13:02:46.352Z,22.68
2022-10-05T13:04:06.656Z,22.71
2022-10-05T13:05:08.796Z,22.66
2022-10-05T13:06:16.959Z,22.57
2022-10-05T13:07:56.581Z,22.43
2022-10-05T13:09:16.933Z,22.44
2022-10-05T13:10:22.606Z,22.37
2022-10-05T13:11:55.896Z,22.42
2022-10-05T13:13:34.606Z,22.46
2022-10-05T13:14:36.906Z,22.53
2022-10-05T13:16:12.043Z,22.54
2022-10-05T13:17:26.071Z,22.62
2022-10-05T13:19:02.653Z,22.54
2022-10-05T13:20:21.485Z,22.41
2022-10-05T13:21:33.725Z,22.32
2022-10-05T13:23:07.078Z,22.30
2022-10-05T13:24:29.705Z,22.25
2022-10-05T13:25:37.794Z,22.21
2022-10-05T13:26:55.194Z,22.21
2022-10-05T13:28:10.285Z,22.19
2022-10-05T13:29:22.137Z,22.28
2022-10-05T13:30:24.462Z,22.41
2022-10-05T13:31:31.975Z,22.40
2022-10-05T13:32:39.061Z,22.47
2022-10-05T13:33:54.540Z,22.51
2022-10-05T13:35:15.233Z,22.60
2022-10-05T13:36:26.323Z,22.56
2022-10-05T13:37:53.082Z,22.58
2022-10-05T13:39:00.659Z,22.61
2022-10-05T13:40:28.930Z,22.60
2022-10-05T13:41:51.852Z,22.65
2022-10-05T13:43:15.303Z,22.73
2022-10-05T13:44:45.651Z,22.74
2022-10-05T13:46:23.510Z,22.66
2022-10-05T13:47:41.436Z,22.62
2022-10-05T13:49:06.497Z,22.60
2022-10-05T13:50:22.131Z,22.59
2022-10-05T13:51:34.117Z,22.63
2022-10-05T13:53:03.853Z,22.71
2022-10-05T13:54:28.327Z,22.82
2022-10-05T13:55:58.299Z,22.92
2022-10-05T13:57:28.354Z,22.79
2022-10-05T13:58:48.766Z,22.69
2022-10-05T13:59:55.681Z,22.72
2022-10-05T14:01:05.288Z,22.65
2022-10-05T14:02:17.306Z,22.75
2022-10-05T14:03:35.062Z,22.62
2022-10-05T14:04:48.466Z,22.59
2022-10-05T14:05:57.527Z,22.53
2022-10-05T14:07:23.455Z,22.44
2022-10-05T14:08:33.484Z,22.33
2022-10-05T14:09:35.977Z,22.15
2022-10-05T14:10:46.678Z,22.08
2022-10-05T14:12:11.862Z,22.04
2022-10-05T14:13:28.970Z,21.96
2022-10-05T14:14:45.226Z,21.88
2022-10-05T14:16:04.651Z,21.94
2022-10-05T14:17:14.730Z,21.94
2022-10-05T14:18:28.247Z,22.06
2022-10-05T14:19:48.929Z,22.04
2022-10-05T14:21:08.781Z,22.03
2022-10-05T14:22:25.106Z,22.08
2022-10-05T14:23:27.951Z,22.16
2022-10-05T14:24:49.684Z,22.08
2022-10-05T14:26:05.701Z,21.97
2022-10-05T14:27:27.544Z,21.80
2022-10-05T14:28:29.979Z,21.77
2022-10-05T14:29:38.023Z,21.81
2022-10-05T14:30:40.543Z,21.87
2022-10-05T14:31:59.797Z,21.91
2022-10-05T14:33:04.648Z,21.80
2022-10-05T14:34:34.951Z,21.69
2022-10-05T14:35:58.649Z,21.79
2022-10-05T14:38:40.345Z,21.90
2022-10-05T14:39:42.745Z,21.88
2022-10-05T14:40:44.928Z,21.75
2022-10-05T14:41:50.597Z,21.63
2022-10-05T14:42:53.875Z,21.67
2022-10-05T14:44:11.293Z,21.52
2022-10-05T14:45:17.654Z,21.28
2022-10-05T14:46:27.182Z,21.27
2022-10-05T14:47:32.107Z,21.29
2022-10-05T14:48:45.414Z,21.23
2022-10-05T14:50:10.719Z,21.21
2022-10-05T14:51:30.601Z,21.13
2022-10-05T14:52:32.937Z,21.15
2022-10-05T14:53:40.663Z,21.19
2022-10-05T14:55:03.009Z,21.12
2022-10-05T14:56:17.049Z,21.16
2022-10-05T14:57:44.749Z,20.92
2022-10-05T14:59:32.790Z,20.98
2022-10-05T15:00:48.871Z,20.77
2022-10-05T15:02:12.814Z,20.78
2022-10-05T15:03:27.282Z,20.74
2022-10-05T15:04:44.753Z,20.74
2022-10-05T15:05:59.391Z,20.79
2022-10-05T15:07:23.953Z,20.83
2022-10-05T15:08:50.970Z,20.76
2022-10-05T15:10:17.818Z,20.76
2022-10-05T15:11:35.005Z,20.69
2022-10-05T15:12:46.684Z,20.73
2022-10-05T15:13:49.539Z,20.55
2022-10-05T15:14:56.061Z,20.57
2022-10-05T15:16:09.310Z,20.55
2022-10-05T15:17:25.580Z,20.49
2022-10-05T15:18:43.868Z,20.49
2022-10-05T15:20:32.126Z,20.48
2022-10-05T15:21:34.447Z,20.46
2022-10-05T15:22:41.240Z,20.50
2022-10-05T15:23:53.219Z,20.50
2022-10-05T15:25:38.118Z,20.42
2022-10-05T15:26:53.533Z,20.38
2022-10-05T15:28:33.397Z,20.23
2022-10-05T15:30:07.725Z,20.22
2022-10-05T15:31:27.217Z,20.15
2022-10-05T15:32:41.574Z,20.16
2022-10-05T15:34:00.676Z,20.12
2022-10-05T15:35:21.688Z,20.06
2022-10-05T15:36:39.199Z,20.02
2022-10-05T15:37:52.087Z,20.02
2022-10-05T15:39:03.520Z,19.97
2022-10-05T15:40:22.154Z,19.85
2022-10-05T15:41:30.047Z,19.73
2022-10-05T15:42:45.098Z,19.72
2022-10-05T15:43:55.473Z,19.74
2022-10-05T15:45:06.391Z,19.81
2022-10-05T15:46:17.228Z,19.82
2022-10-05T15:47:27.429Z,19.76
2022-10-05T15:48:50.358Z,19.78
2022-10-05T15:50:06.722Z,19.72
2022-10-05T15:51:22.679Z,19.62
2022-10-05T15:52:33.103Z,19.60
2022-10-05T15:53:46.706Z,19.50
2022-10-05T15:55:14.931Z,19.52
2022-10-05T15:56:29.870Z,19.40
2022-10-05T15:57:53.335Z,19.44
2022-10-05T15:59:05.467Z,19.39
2022-10-05T16:00:18.489Z,19.42
2022-10-05T16:01:32.506Z,19.35
2022-10-05T16:02:41.787Z,19.40
2022-10-05T16:04:16.827Z,19.39
2022-10-05T16:06:08.351Z,19.27
2022-10-05T16:07:46.483Z,19.20
2022-10-05T16:09:07.600Z,19.13
2022-10-05T16:10:16.006Z,19.05
2022-10-05T16:11:45.706Z,19.03
2022-10-05T16:12:56.847Z,18.92
2022-10-05T16:14:15.522Z,18.84
2022-10-05T16:15:17.898Z,18.83
2022-10-05T16:16:42.108Z,18.89
2022-10-05T16:18:22.033Z,18.87
2022-10-05T16:19:38.496Z,18.88
2022-10-05T16:21:07.548Z,18.82
2022-10-05T16:22:47.682Z,18.69
2022-10-05T16:24:23.339Z,18.68
2022-10-05T16:25:46.922Z,18.71
2022-10-05T16:26:59.450Z,18.61
2022-10-05T16:28:33.804Z,18.65
2022-10-05T16:29:38.944Z,18.55
2022-10-05T16:31:08.402Z,18.51
2022-10-05T16:32:16.615Z,18.47
2022-10-05T16:33:36.234Z,18.51
2022-10-05T16:34:49.335Z,18.51
2022-10-05T16:36:16.860Z,18.36
2022-10-05T16:37:28.321Z,18.36
2022-10-05T16:38:54.248Z,18.38
2022-10-05T16:40:18.339Z,18.28
2022-10-05T16:41:39.178Z,18.27
2022-10-05T16:42:56.293Z,18.27
2022-10-05T16:44:10.561Z,18.19
2022-10-05T16:45:21.794Z,18.17
2022-10-05T16:46:34.605Z,18.15
2022-10-05T16:47:50.578Z,18.18
2022-10-05T16:48:58.332Z,18.19
2022-10-05T16:50:21.877Z,18.15
2022-10-05T16:51:30.325Z,18.27
2022-10-05T16:52:34.216Z,18.19
2022-10-05T16:54:06.936Z,18.11
2022-10-05T16:55:20.144Z,18.05
2022-10-05T16:56:27.183Z,17.89
2022-10-05T16:57:41.935Z,17.91
2022-10-05T16:58:55.085Z,17.88
2022-10-05T17:00:20.876Z,17.78
2022-10-05T17:01:43.216Z,17.76
2022-10-05T17:02:48.225Z,17.79
2022-10-05T17:03:50.497Z,17.81
2022-10-05T17:04:56.764Z,17.86
2022-10-05T17:06:04.132Z,17.80